createdAt,value
2018-03-30T00:00:05.668Z,4.75
2018-03-30T00:02:33.544Z,4.83
2018-03-30T00:05:01.132Z,4.69
2018-03-30T00:07:28.688Z,4.67
2018-03-30T00:09:56.371Z,4.68
2018-03-30T00:12:24.192Z,4.78
2018-03-30T00:14:51.995Z,4.66
2018-03-30T00:17:20.043Z,4.76
2018-03-30T00:19:47.695Z,4.76
2018-03-30T00:22:18.667Z,4.68
2018-03-30T00:24:47.482Z,4.75
2018-03-30T00:27:15.893Z,4.68
2018-03-30T00:29:44.548Z,4.72
2018-03-30T00:32:13.718Z,4.57
2018-03-30T00:34:41.240Z,4.51
2018-03-30T00:37:08.904Z,4.68
2018-03-30T00:39:37.799Z,4.71
2018-03-30T00:42:05.368Z,4.60
2018-03-30T00:44:34.118Z,4.50
2018-03-30T00:47:01.725Z,4.57
2018-03-30T00:49:32.309Z,4.53
2018-03-30T00:52:01.129Z,4.59
2018-03-30T00:54:29.033Z,4.45
2018-03-30T00:56:57.050Z,4.52
2018-03-30T00:59:25.431Z,4.63
2018-03-30T01:01:54.882Z,4.55
2018-03-30T01:04:23.613Z,4.54
2018-03-30T01:06:51.996Z,4.67
2018-03-30T01:09:19.526Z,4.69
2018-03-30T01:11:47.315Z,4.55
2018-03-30T01:14:14.881Z,4.52
2018-03-30T01:16:42.435Z,4.51
2018-03-30T01:19:09.983Z,4.62
2018-03-30T01:21:38.296Z,4.54
2018-03-30T01:24:05.803Z,4.58
2018-03-30T01:26:33.359Z,4.61
2018-03-30T01:29:00.890Z,4.65
2018-03-30T01:31:28.456Z,4.55
2018-03-30T01:33:56.001Z,4.55
2018-03-30T01:36:23.551Z,4.48
2018-03-30T01:38:51.097Z,4.51
2018-03-30T01:41:18.740Z,4.50
2018-03-30T01:43:46.259Z,4.45
2018-03-30T01:46:13.812Z,4.38
2018-03-30T01:48:41.346Z,4.28
2018-03-30T01:51:08.896Z,4.32
2018-03-30T01:53:36.452Z,4.21
2018-03-30T01:56:04.044Z,4.24
2018-03-30T01:58:31.571Z,4.02
2018-03-30T02:00:59.147Z,4.11
2018-03-30T02:03:26.667Z,4.22
2018-03-30T02:05:54.195Z,4.08
2018-03-30T02:08:21.748Z,4.16
2018-03-30T02:10:49.279Z,4.24
2018-03-30T02:13:16.851Z,3.95
2018-03-30T02:15:44.380Z,4.23
2018-03-30T02:18:11.955Z,4.01
2018-03-30T02:20:39.494Z,3.97
2018-03-30T02:23:07.142Z,4.11
2018-03-30T02:25:34.668Z,4.19
2018-03-30T02:28:02.221Z,4.17
2018-03-30T02:30:29.764Z,4.07
2018-03-30T02:32:57.329Z,4.03
2018-03-30T02:35:24.876Z,3.92
2018-03-30T02:37:52.485Z,3.87
2018-03-30T02:40:20.009Z,3.91
2018-03-30T02:42:47.595Z,3.88
2018-03-30T02:45:15.134Z,4.06
2018-03-30T02:47:42.883Z,3.88
2018-03-30T02:50:10.474Z,3.77
2018-03-30T02:52:38.033Z,3.73
2018-03-30T02:55:05.576Z,3.91
2018-03-30T02:57:33.157Z,3.93
2018-03-30T03:00:00.735Z,3.98
2018-03-30T03:02:28.294Z,3.85
2018-03-30T03:04:55.824Z,3.82
2018-03-30T03:07:23.412Z,3.61
2018-03-30T03:09:50.927Z,3.80
2018-03-30T03:12:18.501Z,3.83
2018-03-30T03:14:46.020Z,3.77
2018-03-30T03:17:13.650Z,3.72
2018-03-30T03:19:41.516Z,3.77
2018-03-30T03:22:09.075Z,3.81
2018-03-30T03:24:36.600Z,3.73
2018-03-30T03:27:04.151Z,3.54
2018-03-30T03:29:31.679Z,3.61
2018-03-30T03:31:59.251Z,3.65
2018-03-30T03:34:26.772Z,3.56
2018-03-30T03:36:54.319Z,3.39
2018-03-30T03:39:21.890Z,3.39
2018-03-30T03:41:49.446Z,3.44
2018-03-30T03:44:17.016Z,3.44
2018-03-30T03:46:44.569Z,3.54
2018-03-30T03:49:12.123Z,3.67
2018-03-30T03:51:40.553Z,3.21
2018-03-30T03:54:08.169Z,3.42
2018-03-30T03:56:35.706Z,3.33
2018-03-30T03:59:03.279Z,3.37
2018-03-30T04:01:30.810Z,3.53
2018-03-30T04:03:58.378Z,3.57
2018-03-30T04:06:25.912Z,3.46
2018-03-30T04:08:53.464Z,3.50
2018-03-30T04:11:20.992Z,3.40
2018-03-30T04:13:48.638Z,3.08
2018-03-30T04:16:16.197Z,3.17
2018-03-30T04:18:43.767Z,3.23
2018-03-30T04:21:11.320Z,3.35
2018-03-30T04:23:38.878Z,3.38
2018-03-30T04:26:06.404Z,2.98
2018-03-30T04:28:34.047Z,3.16
2018-03-30T04:31:01.564Z,3.26
2018-03-30T04:33:29.111Z,3.38
2018-03-30T04:35:56.635Z,3.12
2018-03-30T04:38:24.183Z,3.17
2018-03-30T04:40:51.725Z,3.11
2018-03-30T04:43:19.292Z,3.22
2018-03-30T04:45:46.820Z,3.15
2018-03-30T04:48:14.371Z,3.18
2018-03-30T04:50:41.930Z,3.18
2018-03-30T04:53:09.479Z,3.25
2018-03-30T04:55:36.998Z,3.19
2018-03-30T04:58:04.559Z,3.00
2018-03-30T05:00:32.077Z,2.64
2018-03-30T05:02:59.641Z,2.92
2018-03-30T05:05:27.159Z,2.82
2018-03-30T05:07:54.787Z,2.80
2018-03-30T05:10:22.262Z,2.85
2018-03-30T05:12:49.798Z,3.04
2018-03-30T05:15:17.355Z,3.01
2018-03-30T05:17:44.896Z,3.02
2018-03-30T05:20:12.456Z,3.01
2018-03-30T05:22:39.992Z,3.03
2018-03-30T05:25:07.560Z,3.05
2018-03-30T05:27:35.079Z,3.02
2018-03-30T05:30:02.627Z,3.03
2018-03-30T05:32:30.165Z,3.10
2018-03-30T05:34:57.739Z,3.19
2018-03-30T05:37:25.263Z,3.24
2018-03-30T05:39:52.825Z,3.30
2018-03-30T05:42:20.344Z,3.36
2018-03-30T05:44:47.928Z,3.25
2018-03-30T05:47:15.452Z,3.30
2018-03-30T05:49:42.999Z,3.29
2018-03-30T05:52:10.523Z,3.32
2018-03-30T05:54:38.087Z,3.27
2018-03-30T05:57:05.608Z,3.28
2018-03-30T05:59:33.165Z,3.25
2018-03-30T06:02:00.712Z,3.30
2018-03-30T06:04:28.270Z,3.33
2018-03-30T06:06:55.849Z,3.44
2018-03-30T06:09:23.898Z,3.35
2018-03-30T06:11:51.420Z,3.52
2018-03-30T06:14:18.982Z,3.49
2018-03-30T06:16:46.598Z,3.57
2018-03-30T06:19:14.673Z,3.57
2018-03-30T06:21:42.214Z,3.62
2018-03-30T06:24:09.792Z,3.69
2018-03-30T06:26:37.388Z,3.79
2018-03-30T06:29:05.067Z,3.84
2018-03-30T06:31:32.678Z,4.04
2018-03-30T06:34:00.244Z,3.87
2018-03-30T06:36:27.775Z,4.11
2018-03-30T06:38:55.327Z,4.18
2018-03-30T06:41:24.184Z,4.31
2018-03-30T06:43:51.730Z,4.44
2018-03-30T06:46:19.255Z,4.42
2018-03-30T06:48:46.794Z,4.29
2018-03-30T06:51:14.419Z,4.49
2018-03-30T06:53:42.254Z,4.52
2018-03-30T06:56:09.838Z,4.55
2018-03-30T06:58:37.692Z,4.62
2018-03-30T07:01:07.116Z,4.63
2018-03-30T07:03:34.866Z,4.74
2018-03-30T07:06:02.624Z,4.78
2018-03-30T07:08:30.253Z,4.81
2018-03-30T07:10:57.821Z,4.83
2018-03-30T07:13:25.359Z,4.88
2018-03-30T07:15:53.110Z,4.98
2018-03-30T07:18:20.639Z,4.88
2018-03-30T07:20:48.235Z,4.96
2018-03-30T07:23:15.841Z,5.03
2018-03-30T07:25:43.410Z,5.09
2018-03-30T07:28:10.971Z,5.16
2018-03-30T07:30:38.523Z,5.13
2018-03-30T07:33:06.080Z,5.30
2018-03-30T07:35:33.630Z,5.37
2018-03-30T07:38:01.165Z,5.39
2018-03-30T07:40:28.723Z,5.45
2018-03-30T07:42:56.251Z,5.54
2018-03-30T07:45:23.806Z,5.64
2018-03-30T07:47:51.316Z,5.72
2018-03-30T07:50:18.872Z,5.81
2018-03-30T07:52:46.417Z,5.81
2018-03-30T07:55:13.977Z,5.93
2018-03-30T07:57:41.536Z,5.96
2018-03-30T08:00:09.092Z,6.08
2018-03-30T08:02:36.604Z,6.14
2018-03-30T08:05:04.914Z,6.22
2018-03-30T08:07:32.444Z,6.40
2018-03-30T08:10:00.014Z,6.48
2018-03-30T08:12:27.551Z,6.52
2018-03-30T08:14:55.116Z,6.60
2018-03-30T08:17:22.638Z,6.73
2018-03-30T08:19:50.225Z,6.86
2018-03-30T08:22:17.896Z,7.01
2018-03-30T08:24:45.411Z,7.10
2018-03-30T08:27:18.077Z,7.16
2018-03-30T08:29:46.652Z,7.27
2018-03-30T08:32:14.199Z,7.48
2018-03-30T08:34:41.729Z,7.44
2018-03-30T08:37:10.548Z,7.60
2018-03-30T08:39:38.139Z,7.68
2018-03-30T08:42:05.694Z,7.75
2018-03-30T08:44:33.314Z,7.85
2018-03-30T08:47:00.867Z,8.02
2018-03-30T08:49:28.398Z,8.06
2018-03-30T08:51:55.948Z,8.24
2018-03-30T08:54:23.522Z,8.32
2018-03-30T08:56:51.084Z,8.31
2018-03-30T08:59:21.757Z,8.42
2018-03-30T09:01:53.081Z,8.71
2018-03-30T09:04:25.468Z,8.90
2018-03-30T09:06:53.375Z,8.75
2018-03-30T09:09:20.912Z,8.91
2018-03-30T09:11:48.462Z,9.12
2018-03-30T09:14:16.825Z,9.19
2018-03-30T09:16:44.383Z,9.24
2018-03-30T09:19:11.900Z,9.33
2018-03-30T09:21:42.735Z,9.40
2018-03-30T09:24:13.193Z,9.51
2018-03-30T09:26:40.932Z,9.72
2018-03-30T09:29:08.482Z,9.95
2018-03-30T09:31:36.874Z,9.83
2018-03-30T09:34:05.200Z,9.95
2018-03-30T09:36:32.891Z,10.13
2018-03-30T09:39:01.193Z,10.20
2018-03-30T09:41:28.918Z,10.07
2018-03-30T09:43:56.660Z,10.13
2018-03-30T09:46:24.268Z,10.19
2018-03-30T09:48:51.898Z,10.13
2018-03-30T09:51:19.812Z,10.43
2018-03-30T09:53:47.762Z,10.41
2018-03-30T09:56:15.497Z,10.37
2018-03-30T09:58:43.101Z,10.47
2018-03-30T10:01:16.536Z,10.33
2018-03-30T10:03:49.890Z,10.38
2018-03-30T10:06:18.304Z,10.48
2018-03-30T10:08:46.167Z,10.61
2018-03-30T10:11:13.991Z,10.71
2018-03-30T10:13:41.533Z,10.78
2018-03-30T10:16:09.128Z,10.77
2018-03-30T10:18:36.693Z,10.73
2018-03-30T10:21:04.196Z,10.84
2018-03-30T10:23:33.577Z,10.92
2018-03-30T10:26:01.223Z,11.09
2018-03-30T10:28:29.685Z,11.17
2018-03-30T10:30:57.236Z,11.17
2018-03-30T10:33:24.809Z,11.31
2018-03-30T10:35:52.501Z,11.37
2018-03-30T10:38:20.051Z,11.36
2018-03-30T10:40:47.575Z,11.42
2018-03-30T10:43:15.764Z,11.43
2018-03-30T10:45:43.284Z,11.39
2018-03-30T10:48:10.828Z,11.41
2018-03-30T10:50:38.341Z,11.50
2018-03-30T10:53:05.912Z,11.60
2018-03-30T10:55:34.407Z,11.60
2018-03-30T10:58:03.002Z,11.66
2018-03-30T11:00:30.517Z,11.70
2018-03-30T11:02:58.077Z,11.70
2018-03-30T11:05:25.614Z,11.77
2018-03-30T11:07:53.179Z,11.87
2018-03-30T11:10:20.694Z,11.85
2018-03-30T11:12:48.256Z,11.82
2018-03-30T11:15:15.821Z,11.84
2018-03-30T11:17:43.383Z,11.86
2018-03-30T11:20:10.908Z,11.88
2018-03-30T11:22:43.054Z,11.88
2018-03-30T11:25:10.731Z,11.83
2018-03-30T11:27:38.296Z,11.92
2018-03-30T11:30:05.889Z,11.88
2018-03-30T11:32:34.158Z,11.90
2018-03-30T11:35:01.675Z,11.97
2018-03-30T11:37:29.798Z,12.00
2018-03-30T11:39:57.446Z,12.01
2018-03-30T11:42:25.037Z,12.04
2018-03-30T11:44:53.705Z,12.06
2018-03-30T11:47:21.836Z,12.16
2018-03-30T11:49:50.564Z,12.12
2018-03-30T11:52:18.116Z,12.11
2018-03-30T11:54:45.640Z,12.00
2018-03-30T11:57:13.219Z,12.16
2018-03-30T11:59:42.182Z,12.22
2018-03-30T12:02:10.591Z,12.13
2018-03-30T12:04:45.430Z,12.15
2018-03-30T12:07:16.808Z,12.15
2018-03-30T12:09:49.632Z,12.23
2018-03-30T12:12:22.666Z,12.27
2018-03-30T12:14:52.769Z,12.25
2018-03-30T12:20:00.585Z,12.37
2018-03-30T12:22:32.547Z,12.45
2018-03-30T12:25:05.570Z,12.40
2018-03-30T12:27:38.288Z,12.32
2018-03-30T12:30:11.248Z,12.31
2018-03-30T12:32:43.952Z,12.37
2018-03-30T12:35:16.592Z,12.37
2018-03-30T12:37:50.766Z,12.42
2018-03-30T12:40:25.272Z,12.51
2018-03-30T12:45:34.372Z,12.30
2018-03-30T12:50:51.095Z,12.14
2018-03-30T12:53:20.150Z,12.01
2018-03-30T12:55:49.584Z,12.00
2018-03-30T12:58:20.353Z,12.01
2018-03-30T13:00:48.711Z,11.76
2018-03-30T13:03:18.171Z,11.79
2018-03-30T13:05:46.151Z,11.65
2018-03-30T13:08:13.734Z,11.48
2018-03-30T13:10:42.157Z,11.36
2018-03-30T13:13:09.783Z,11.42
2018-03-30T13:15:37.393Z,11.13
2018-03-30T13:18:04.921Z,11.43
2018-03-30T13:20:32.487Z,11.06
2018-03-30T13:23:01.777Z,11.27
2018-03-30T13:25:29.752Z,11.00
2018-03-30T13:27:57.286Z,10.85
2018-03-30T13:30:25.684Z,10.83
2018-03-30T13:32:53.203Z,10.75
2018-03-30T13:35:20.763Z,10.69
2018-03-30T13:37:48.310Z,10.47
2018-03-30T13:40:15.864Z,10.64
2018-03-30T13:42:46.380Z,10.45
2018-03-30T13:45:14.090Z,10.67
2018-03-30T13:47:42.972Z,10.33
2018-03-30T13:50:10.693Z,10.20
2018-03-30T13:52:41.873Z,10.36
2018-03-30T13:55:10.326Z,10.07
2018-03-30T13:57:49.099Z,9.96
2018-03-30T14:00:21.200Z,10.01
2018-03-30T14:02:53.495Z,9.57
2018-03-30T14:05:26.256Z,9.90
2018-03-30T14:08:01.573Z,9.62
2018-03-30T14:10:31.130Z,9.40
2018-03-30T14:13:01.522Z,9.71
2018-03-30T14:15:34.650Z,9.65
2018-03-30T14:18:06.549Z,9.39
2018-03-30T14:20:34.127Z,9.60
2018-03-30T14:23:18.332Z,9.39
2018-03-30T14:25:54.551Z,9.61
2018-03-30T14:28:24.961Z,9.18
2018-03-30T14:33:54.188Z,9.55
2018-03-30T14:39:24.492Z,9.51
2018-03-30T14:41:52.078Z,9.47
2018-03-30T14:44:24.456Z,9.30
2018-03-30T14:46:55.300Z,9.54
2018-03-30T14:49:26.186Z,9.19
2018-03-30T14:51:59.638Z,8.85
2018-03-30T14:54:42.536Z,9.18
2018-03-30T14:57:28.828Z,9.38
2018-03-30T14:59:57.251Z,9.34
2018-03-30T15:02:36.305Z,9.38
2018-03-30T15:05:21.889Z,9.36
2018-03-30T15:08:00.786Z,9.21
2018-03-30T15:10:36.415Z,9.25
2018-03-30T15:13:11.740Z,9.24
2018-03-30T15:16:10.376Z,9.12
2018-03-30T15:18:42.975Z,9.28
2018-03-30T15:21:17.906Z,9.22
2018-03-30T15:23:54.726Z,8.73
2018-03-30T15:29:38.817Z,9.27
2018-03-30T15:32:15.316Z,9.25
2018-03-30T15:34:47.280Z,9.27
2018-03-30T15:37:18.882Z,9.24
2018-03-30T15:39:49.608Z,9.21
2018-03-30T15:42:21.435Z,9.09
2018-03-30T15:44:52.987Z,9.14
2018-03-30T15:47:24.215Z,9.14
2018-03-30T15:49:52.862Z,9.23
2018-03-30T15:52:25.723Z,9.12
2018-03-30T15:55:02.192Z,9.04
2018-03-30T15:57:41.569Z,9.03
2018-03-30T16:00:15.335Z,9.04
2018-03-30T16:02:49.159Z,8.54
2018-03-30T16:05:21.694Z,8.77
2018-03-30T16:07:51.499Z,8.68
2018-03-30T16:10:24.300Z,8.92
2018-03-30T16:12:53.954Z,9.08
2018-03-30T16:15:27.109Z,8.97
2018-03-30T16:17:58.627Z,8.97
2018-03-30T16:20:26.592Z,8.87
2018-03-30T16:22:56.418Z,8.83
2018-03-30T16:25:25.063Z,8.51
2018-03-30T16:27:55.180Z,8.59
2018-03-30T16:30:26.218Z,8.71
2018-03-30T16:32:53.905Z,8.75
2018-03-30T16:35:22.186Z,8.67
2018-03-30T16:37:51.423Z,8.48
2018-03-30T16:40:18.440Z,8.35
2018-03-30T16:42:48.969Z,8.63
2018-03-30T16:45:19.197Z,8.58
2018-03-30T16:47:48.222Z,8.49
2018-03-30T16:50:19.400Z,8.69
2018-03-30T16:52:48.455Z,8.79
2018-03-30T16:55:17.997Z,8.61
2018-03-30T17:00:21.527Z,8.47
2018-03-30T17:05:23.473Z,8.75
2018-03-30T17:07:58.308Z,8.71
2018-03-30T17:10:29.795Z,8.77
2018-03-30T17:12:59.333Z,8.78
2018-03-30T17:15:28.425Z,8.61
2018-03-30T17:17:58.727Z,8.74
2018-03-30T17:20:27.940Z,8.70
2018-03-30T17:23:02.164Z,8.66
2018-03-30T17:25:34.430Z,8.46
2018-03-30T17:30:39.125Z,8.28
2018-03-30T17:33:10.791Z,8.45
2018-03-30T17:35:41.531Z,8.43
2018-03-30T17:38:11.924Z,8.49
2018-03-30T17:40:44.496Z,8.37
2018-03-30T17:43:13.832Z,8.46
2018-03-30T17:45:44.687Z,8.51
2018-03-30T17:48:14.647Z,8.51
2018-03-30T17:50:46.364Z,8.45
2018-03-30T17:53:16.165Z,8.53
2018-03-30T17:55:47.596Z,8.22
2018-03-30T17:58:19.506Z,8.21
2018-03-30T18:00:49.731Z,8.23
2018-03-30T18:03:18.738Z,8.40
2018-03-30T18:05:46.165Z,8.31
2018-03-30T18:08:14.156Z,8.37
2018-03-30T18:10:41.171Z,8.39
2018-03-30T18:13:08.158Z,8.38
2018-03-30T18:15:35.584Z,8.47
2018-03-30T18:18:05.838Z,8.46
2018-03-30T18:20:34.677Z,8.53
2018-03-30T18:23:07.747Z,8.47
2018-03-30T18:25:35.495Z,8.51
2018-03-30T18:28:03.002Z,8.51
2018-03-30T18:30:38.581Z,8.40
2018-03-30T18:33:08.249Z,8.46
2018-03-30T18:35:37.766Z,8.37
2018-03-30T18:38:07.817Z,8.37
2018-03-30T18:40:39.850Z,8.44
2018-03-30T18:43:07.637Z,8.40
2018-03-30T18:45:39.667Z,8.46
2018-03-30T18:48:11.259Z,8.46
2018-03-30T18:50:42.373Z,8.44
2018-03-30T18:53:13.986Z,8.36
2018-03-30T18:55:43.703Z,8.38
2018-03-30T18:58:14.944Z,8.42
2018-03-30T19:00:44.255Z,8.41
2018-03-30T19:03:16.224Z,8.25
2018-03-30T19:05:45.844Z,8.36
2018-03-30T19:08:13.374Z,8.35
2018-03-30T19:10:43.039Z,8.36
2018-03-30T19:13:11.106Z,8.28
2018-03-30T19:15:39.337Z,8.37
2018-03-30T19:18:06.698Z,8.36
2018-03-30T19:20:34.031Z,8.36
2018-03-30T19:23:01.345Z,8.27
2018-03-30T19:25:28.400Z,8.29
2018-03-30T19:27:55.513Z,8.32
2018-03-30T19:30:23.078Z,8.29
2018-03-30T19:32:50.508Z,8.13
2018-03-30T19:35:18.331Z,8.16
2018-03-30T19:37:45.443Z,8.15
2018-03-30T19:40:12.437Z,8.20
2018-03-30T19:42:39.923Z,8.19
2018-03-30T19:45:07.040Z,8.11
2018-03-30T19:47:34.053Z,8.20
2018-03-30T19:50:01.039Z,8.18
2018-03-30T19:52:28.066Z,8.11
2018-03-30T19:54:55.271Z,8.14
2018-03-30T19:57:22.301Z,8.10
2018-03-30T19:59:49.293Z,8.09
2018-03-30T20:02:16.315Z,8.09
2018-03-30T20:04:44.615Z,8.06
2018-03-30T20:07:11.980Z,8.08
2018-03-30T20:09:39.715Z,7.95
2018-03-30T20:12:06.884Z,8.00
2018-03-30T20:14:38.831Z,8.02
2018-03-30T20:17:07.248Z,8.05
2018-03-30T20:19:34.377Z,8.09
2018-03-30T20:22:02.257Z,8.05
2018-03-30T20:24:29.700Z,8.02
2018-03-30T20:26:58.416Z,7.86
2018-03-30T20:29:25.444Z,8.00
2018-03-30T20:31:52.472Z,8.01
2018-03-30T20:34:19.463Z,8.02
2018-03-30T20:36:46.564Z,8.00
2018-03-30T20:39:15.065Z,7.89
2018-03-30T20:41:44.848Z,7.86
2018-03-30T20:44:12.719Z,7.85
2018-03-30T20:46:40.706Z,7.81
2018-03-30T20:49:09.561Z,7.75
2018-03-30T20:51:36.985Z,7.69
2018-03-30T20:54:04.764Z,7.75
2018-03-30T20:56:33.470Z,7.80
2018-03-30T20:59:03.123Z,7.77
2018-03-30T21:01:30.751Z,7.51
2018-03-30T21:03:58.068Z,7.44
2018-03-30T21:06:25.095Z,7.46
2018-03-30T21:08:53.007Z,7.49
2018-03-30T21:11:21.177Z,7.48
2018-03-30T21:13:48.536Z,7.35
2018-03-30T21:16:15.575Z,7.44
2018-03-30T21:18:42.712Z,7.51
2018-03-30T21:21:09.953Z,7.50
2018-03-30T21:23:37.135Z,7.37
2018-03-30T21:26:04.147Z,7.40
2018-03-30T21:28:31.291Z,7.29
2018-03-30T21:31:00.707Z,7.28
2018-03-30T21:33:28.021Z,7.24
2018-03-30T21:35:57.290Z,7.19
2018-03-30T21:38:24.656Z,7.19
2018-03-30T21:40:51.782Z,7.28
2018-03-30T21:43:18.918Z,7.31
2018-03-30T21:45:45.915Z,7.17
2018-03-30T21:50:55.229Z,7.03
2018-03-30T21:53:22.757Z,7.05
2018-03-30T21:55:50.254Z,7.04
2018-03-30T21:58:17.967Z,6.92
2018-03-30T22:00:46.760Z,6.90
2018-03-30T22:03:15.037Z,6.74
2018-03-30T22:05:43.232Z,6.87
2018-03-30T22:08:11.573Z,6.77
2018-03-30T22:10:38.679Z,6.67
2018-03-30T22:13:05.697Z,6.80
2018-03-30T22:15:32.688Z,6.65
2018-03-30T22:17:59.728Z,6.68
2018-03-30T22:20:30.009Z,6.75
2018-03-30T22:22:58.232Z,6.73
2018-03-30T22:25:25.888Z,6.82
2018-03-30T22:27:54.081Z,6.76
2018-03-30T22:30:21.528Z,6.78
2018-03-30T22:32:48.550Z,6.81
2018-03-30T22:35:15.930Z,6.81
2018-03-30T22:37:46.603Z,6.76
2018-03-30T22:40:17.672Z,6.79
2018-03-30T22:42:45.476Z,6.73
2018-03-30T22:45:12.458Z,6.77
2018-03-30T22:47:41.313Z,6.76
2018-03-30T22:50:09.923Z,6.77
2018-03-30T22:52:37.504Z,6.82
2018-03-30T22:55:07.881Z,6.80
2018-03-30T22:57:36.073Z,6.81
2018-03-30T23:00:03.396Z,6.51
2018-03-30T23:02:31.323Z,6.31
2018-03-30T23:04:58.435Z,6.49
2018-03-30T23:07:25.533Z,6.52
2018-03-30T23:09:52.523Z,6.62
2018-03-30T23:12:20.953Z,6.65
2018-03-30T23:14:52.708Z,6.49
2018-03-30T23:17:20.577Z,6.42
2018-03-30T23:19:47.700Z,6.50
2018-03-30T23:22:16.300Z,6.39
2018-03-30T23:24:43.308Z,6.41
2018-03-30T23:27:11.068Z,6.41
2018-03-30T23:29:38.816Z,6.48
2018-03-30T23:32:06.725Z,6.48
2018-03-30T23:34:33.799Z,6.47
2018-03-30T23:37:01.954Z,6.51
2018-03-30T23:39:29.322Z,6.35
2018-03-30T23:41:56.447Z,6.47
2018-03-30T23:44:23.673Z,6.43
2018-03-30T23:46:50.887Z,6.47
2018-03-30T23:49:20.324Z,6.38
2018-03-30T23:51:47.458Z,6.36
2018-03-30T23:54:14.638Z,6.38
2018-03-30T23:56:41.834Z,6.34
2018-03-30T23:59:09.127Z,6.35
